sensor_id;sensor_type;location;lat;lon;timestamp;pressure;altitude;pressure_sealevel;temperature;humidity
16777;BME280;8505;49.456;8.164;2024-03-02T00:01:05;98579.16;;;4.25;100.00
16777;BME280;8505;49.456;8.164;2024-03-02T00:03:34;98574.25;;;4.30;100.00
16777;BME280;8505;49.456;8.164;2024-03-02T00:06:02;98574.19;;;4.05;100.00
16777;BME280;8505;49.456;8.164;2024-03-02T00:08:30;98579.47;;;3.80;100.00
16777;BME280;8505;49.456;8.164;2024-03-02T00:10:59;98571.47;;;3.81;100.00
16777;BME280;8505;49.456;8.164;2024-03-02T00:13:29;98563.50;;;3.99;100.00
16777;BME280;8505;49.456;8.164;2024-03-02T00:15:58;98570.44;;;4.16;100.00
16777;BME280;8505;49.456;8.164;2024-03-02T00:18:29;98575.19;;;4.13;100.00
16777;BME280;8505;49.456;8.164;2024-03-02T00:20:58;98568.38;;;3.86;100.00
16777;BME280;8505;49.456;8.164;2024-03-02T00:23:30;98587.91;;;3.65;100.00
16777;BME280;8505;49.456;8.164;2024-03-02T00:25:58;98585.06;;;3.51;100.00
16777;BME280;8505;49.456;8.164;2024-03-02T00:28:29;98578.81;;;3.44;100.00
16777;BME280;8505;49.456;8.164;2024-03-02T00:31:02;98581.56;;;3.42;100.00
16777;BME280;8505;49.456;8.164;2024-03-02T00:33:32;98592.91;;;3.51;100.00
16777;BME280;8505;49.456;8.164;2024-03-02T00:36:01;98588.34;;;3.53;100.00
16777;BME280;8505;49.456;8.164;2024-03-02T00:38:31;98579.97;;;3.83;100.00
16777;BME280;8505;49.456;8.164;2024-03-02T00:41:05;98583.50;;;4.00;100.00
16777;BME280;8505;49.456;8.164;2024-03-02T00:43:53;98588.56;;;4.01;100.00
16777;BME280;8505;49.456;8.164;2024-03-02T00:46:24;98585.94;;;3.93;100.00
16777;BME280;8505;49.456;8.164;2024-03-02T00:48:56;98578.03;;;3.85;100.00
16777;BME280;8505;49.456;8.164;2024-03-02T00:51:26;98576.81;;;3.72;100.00
16777;BME280;8505;49.456;8.164;2024-03-02T00:54:04;98573.75;;;3.76;100.00
16777;BME280;8505;49.456;8.164;2024-03-02T00:56:32;98581.28;;;3.79;100.00
16777;BME280;8505;49.456;8.164;2024-03-02T00:59:02;98569.94;;;3.71;100.00
16777;BME280;8505;49.456;8.164;2024-03-02T01:01:30;98580.72;;;3.67;100.00
16777;BME280;8505;49.456;8.164;2024-03-02T01:03:58;98575.38;;;3.77;100.00
16777;BME280;8505;49.456;8.164;2024-03-02T01:06:25;98582.06;;;3.72;100.00
16777;BME280;8505;49.456;8.164;2024-03-02T01:08:53;98585.63;;;3.62;100.00
16777;BME280;8505;49.456;8.164;2024-03-02T01:11:23;98579.84;;;3.59;100.00
16777;BME280;8505;49.456;8.164;2024-03-02T01:13:51;98580.34;;;3.54;100.00
16777;BME280;8505;49.456;8.164;2024-03-02T01:16:19;98578.69;;;3.53;100.00
16777;BME280;8505;49.456;8.164;2024-03-02T01:18:47;98580.84;;;3.58;100.00
16777;BME280;8505;49.456;8.164;2024-03-02T01:21:15;98574.31;;;3.62;100.00
16777;BME280;8505;49.456;8.164;2024-03-02T01:23:43;98569.31;;;3.43;100.00
16777;BME280;8505;49.456;8.164;2024-03-02T01:26:11;98574.91;;;3.22;100.00
16777;BME280;8505;49.456;8.164;2024-03-02T01:28:40;98575.22;;;3.19;100.00
16777;BME280;8505;49.456;8.164;2024-03-02T01:31:07;98574.75;;;3.23;100.00
16777;BME280;8505;49.456;8.164;2024-03-02T01:33:35;98572.59;;;3.19;100.00
16777;BME280;8505;49.456;8.164;2024-03-02T01:36:03;98567.22;;;3.20;100.00
16777;BME280;8505;49.456;8.164;2024-03-02T01:38:31;98561.19;;;3.20;100.00
16777;BME280;8505;49.456;8.164;2024-03-02T01:41:00;98565.25;;;2.97;100.00
16777;BME280;8505;49.456;8.164;2024-03-02T01:43:27;98561.16;;;2.94;100.00
16777;BME280;8505;49.456;8.164;2024-03-02T01:45:57;98562.28;;;3.17;100.00
16777;BME280;8505;49.456;8.164;2024-03-02T01:48:25;98571.22;;;3.07;100.00
16777;BME280;8505;49.456;8.164;2024-03-02T01:50:52;98567.88;;;2.79;100.00
16777;BME280;8505;49.456;8.164;2024-03-02T01:53:20;98567.66;;;2.72;100.00
16777;BME280;8505;49.456;8.164;2024-03-02T01:55:48;98569.91;;;2.67;100.00
16777;BME280;8505;49.456;8.164;2024-03-02T01:58:16;98568.84;;;2.78;100.00
16777;BME280;8505;49.456;8.164;2024-03-02T02:00:44;98560.53;;;3.00;100.00
16777;BME280;8505;49.456;8.164;2024-03-02T02:03:13;98554.69;;;3.06;100.00
16777;BME280;8505;49.456;8.164;2024-03-02T02:05:42;98554.28;;;3.19;100.00
16777;BME280;8505;49.456;8.164;2024-03-02T02:08:09;98547.16;;;3.29;100.00
16777;BME280;8505;49.456;8.164;2024-03-02T02:10:37;98550.31;;;3.33;100.00
16777;BME280;8505;49.456;8.164;2024-03-02T02:13:05;98553.25;;;3.12;100.00
16777;BME280;8505;49.456;8.164;2024-03-02T02:15:34;98545.88;;;3.07;100.00
16777;BME280;8505;49.456;8.164;2024-03-02T02:18:03;98545.47;;;2.94;100.00
16777;BME280;8505;49.456;8.164;2024-03-02T02:20:33;98544.94;;;2.91;100.00
16777;BME280;8505;49.456;8.164;2024-03-02T02:23:03;98545.31;;;2.78;100.00
16777;BME280;8505;49.456;8.164;2024-03-02T02:25:32;98549.94;;;2.58;100.00
16777;BME280;8505;49.456;8.164;2024-03-02T02:28:00;98549.75;;;2.60;100.00
16777;BME280;8505;49.456;8.164;2024-03-02T02:30:30;98546.53;;;2.48;100.00
16777;BME280;8505;49.456;8.164;2024-03-02T02:32:58;98547.69;;;2.46;100.00
16777;BME280;8505;49.456;8.164;2024-03-02T02:35:26;98546.41;;;2.50;100.00
16777;BME280;8505;49.456;8.164;2024-03-02T02:37:55;98542.16;;;2.49;100.00
16777;BME280;8505;49.456;8.164;2024-03-02T02:40:24;98540.97;;;2.43;100.00
16777;BME280;8505;49.456;8.164;2024-03-02T02:42:52;98532.84;;;2.28;100.00
16777;BME280;8505;49.456;8.164;2024-03-02T02:45:20;98533.41;;;2.22;100.00
16777;BME280;8505;49.456;8.164;2024-03-02T02:47:47;98533.41;;;2.22;100.00
16777;BME280;8505;49.456;8.164;2024-03-02T02:50:15;98528.25;;;2.13;100.00
16777;BME280;8505;49.456;8.164;2024-03-02T02:52:43;98519.22;;;2.07;100.00
16777;BME280;8505;49.456;8.164;2024-03-02T02:55:12;98522.28;;;2.02;100.00
16777;BME280;8505;49.456;8.164;2024-03-02T02:57:43;98525.63;;;1.95;100.00
16777;BME280;8505;49.456;8.164;2024-03-02T03:00:13;98525.78;;;1.93;100.00
16777;BME280;8505;49.456;8.164;2024-03-02T03:02:46;98520.56;;;1.93;100.00
16777;BME280;8505;49.456;8.164;2024-03-02T03:05:16;98527.78;;;1.99;100.00
16777;BME280;8505;49.456;8.164;2024-03-02T03:07:44;98519.44;;;1.96;100.00
16777;BME280;8505;49.456;8.164;2024-03-02T03:10:12;98517.66;;;1.96;100.00
16777;BME280;8505;49.456;8.164;2024-03-02T03:12:43;98515.88;;;1.97;100.00
16777;BME280;8505;49.456;8.164;2024-03-02T03:15:11;98520.09;;;1.98;100.00
16777;BME280;8505;49.456;8.164;2024-03-02T03:17:39;98517.72;;;2.04;100.00
16777;BME280;8505;49.456;8.164;2024-03-02T03:20:08;98516.16;;;2.12;100.00
16777;BME280;8505;49.456;8.164;2024-03-02T03:22:37;98513.69;;;2.10;100.00
16777;BME280;8505;49.456;8.164;2024-03-02T03:25:05;98515.28;;;2.21;100.00
16777;BME280;8505;49.456;8.164;2024-03-02T03:27:34;98515.34;;;2.29;100.00
16777;BME280;8505;49.456;8.164;2024-03-02T03:30:04;98518.59;;;2.40;100.00
16777;BME280;8505;49.456;8.164;2024-03-02T03:32:33;98513.72;;;2.46;100.00
16777;BME280;8505;49.456;8.164;2024-03-02T03:35:01;98510.66;;;2.32;100.00
16777;BME280;8505;49.456;8.164;2024-03-02T03:37:29;98511.31;;;2.17;100.00
16777;BME280;8505;49.456;8.164;2024-03-02T03:40:00;98509.63;;;2.08;100.00
16777;BME280;8505;49.456;8.164;2024-03-02T03:42:28;98510.66;;;1.97;100.00
16777;BME280;8505;49.456;8.164;2024-03-02T03:44:56;98517.13;;;1.93;100.00
16777;BME280;8505;49.456;8.164;2024-03-02T03:47:25;98512.28;;;1.98;100.00
16777;BME280;8505;49.456;8.164;2024-03-02T03:49:53;98510.34;;;2.00;100.00
16777;BME280;8505;49.456;8.164;2024-03-02T03:52:20;98521.69;;;1.91;100.00
16777;BME280;8505;49.456;8.164;2024-03-02T03:54:48;98515.09;;;1.87;100.00
16777;BME280;8505;49.456;8.164;2024-03-02T03:57:16;98515.41;;;1.84;100.00
16777;BME280;8505;49.456;8.164;2024-03-02T03:59:44;98518.59;;;1.78;100.00
16777;BME280;8505;49.456;8.164;2024-03-02T04:02:12;98522.84;;;1.79;100.00
16777;BME280;8505;49.456;8.164;2024-03-02T04:04:41;98527.09;;;1.80;100.00
16777;BME280;8505;49.456;8.164;2024-03-02T04:07:10;98527.41;;;1.77;100.00
16777;BME280;8505;49.456;8.164;2024-03-02T04:09:38;98516.97;;;1.77;100.00
16777;BME280;8505;49.456;8.164;2024-03-02T04:12:06;98516.72;;;1.70;100.00
16777;BME280;8505;49.456;8.164;2024-03-02T04:14:33;98517.91;;;1.76;100.00
16777;BME280;8505;49.456;8.164;2024-03-02T04:17:01;98518.38;;;1.71;100.00
16777;BME280;8505;49.456;8.164;2024-03-02T04:19:29;98515.44;;;1.74;100.00
16777;BME280;8505;49.456;8.164;2024-03-02T04:21:58;98510.47;;;1.81;100.00
16777;BME280;8505;49.456;8.164;2024-03-02T04:24:34;98520.69;;;1.92;100.00
16777;BME280;8505;49.456;8.164;2024-03-02T04:27:02;98518.00;;;1.84;100.00
16777;BME280;8505;49.456;8.164;2024-03-02T04:29:29;98516.75;;;1.88;100.00
16777;BME280;8505;49.456;8.164;2024-03-02T04:31:57;98524.47;;;1.80;100.00
16777;BME280;8505;49.456;8.164;2024-03-02T04:34:25;98522.91;;;1.69;100.00
16777;BME280;8505;49.456;8.164;2024-03-02T04:36:52;98525.94;;;1.65;100.00
16777;BME280;8505;49.456;8.164;2024-03-02T04:39:21;98515.25;;;1.58;100.00
16777;BME280;8505;49.456;8.164;2024-03-02T04:41:49;98523.84;;;1.68;100.00
16777;BME280;8505;49.456;8.164;2024-03-02T04:44:17;98523.81;;;1.78;100.00
16777;BME280;8505;49.456;8.164;2024-03-02T04:46:45;98520.84;;;1.73;100.00
16777;BME280;8505;49.456;8.164;2024-03-02T04:49:12;98528.72;;;1.81;100.00
16777;BME280;8505;49.456;8.164;2024-03-02T04:51:40;98523.50;;;1.81;100.00
16777;BME280;8505;49.456;8.164;2024-03-02T04:54:08;98530.66;;;2.06;100.00
16777;BME280;8505;49.456;8.164;2024-03-02T04:56:37;98536.22;;;2.11;100.00
16777;BME280;8505;49.456;8.164;2024-03-02T04:59:11;98539.22;;;2.16;100.00
16777;BME280;8505;49.456;8.164;2024-03-02T05:01:39;98530.78;;;2.22;100.00
16777;BME280;8505;49.456;8.164;2024-03-02T05:04:06;98532.53;;;2.31;100.00
16777;BME280;8505;49.456;8.164;2024-03-02T05:06:34;98534.41;;;2.39;100.00
16777;BME280;8505;49.456;8.164;2024-03-02T05:09:02;98530.44;;;2.53;100.00
16777;BME280;8505;49.456;8.164;2024-03-02T05:11:30;98537.88;;;2.48;100.00
16777;BME280;8505;49.456;8.164;2024-03-02T05:14:27;98539.63;;;2.57;100.00
16777;BME280;8505;49.456;8.164;2024-03-02T05:16:53;98535.06;;;2.59;100.00
16777;BME280;8505;49.456;8.164;2024-03-02T05:19:21;98535.44;;;2.64;100.00
16777;BME280;8505;49.456;8.164;2024-03-02T05:21:49;98537.81;;;2.75;100.00
16777;BME280;8505;49.456;8.164;2024-03-02T05:24:18;98534.59;;;2.81;100.00
16777;BME280;8505;49.456;8.164;2024-03-02T05:26:46;98541.09;;;2.77;100.00
16777;BME280;8505;49.456;8.164;2024-03-02T05:29:13;98540.34;;;2.67;100.00
16777;BME280;8505;49.456;8.164;2024-03-02T05:31:43;98549.97;;;2.66;100.00
16777;BME280;8505;49.456;8.164;2024-03-02T05:34:10;98545.50;;;2.76;100.00
16777;BME280;8505;49.456;8.164;2024-03-02T05:36:38;98546.16;;;2.78;100.00
16777;BME280;8505;49.456;8.164;2024-03-02T05:39:06;98553.38;;;2.84;100.00
16777;BME280;8505;49.456;8.164;2024-03-02T05:41:35;98544.94;;;2.91;100.00
16777;BME280;8505;49.456;8.164;2024-03-02T05:44:04;98547.72;;;2.89;100.00
16777;BME280;8505;49.456;8.164;2024-03-02T05:46:32;98546.56;;;2.92;100.00
16777;BME280;8505;49.456;8.164;2024-03-02T05:49:02;98543.81;;;2.93;100.00
16777;BME280;8505;49.456;8.164;2024-03-02T05:51:30;98542.25;;;3.00;100.00
16777;BME280;8505;49.456;8.164;2024-03-02T05:53:57;98541.88;;;2.95;100.00
16777;BME280;8505;49.456;8.164;2024-03-02T05:56:25;98540.31;;;3.02;100.00
16777;BME280;8505;49.456;8.164;2024-03-02T05:58:53;98546.09;;;3.14;100.00
16777;BME280;8505;49.456;8.164;2024-03-02T06:01:35;98544.59;;;3.11;100.00
16777;BME280;8505;49.456;8.164;2024-03-02T06:04:04;98542.81;;;3.12;100.00
16777;BME280;8505;49.456;8.164;2024-03-02T06:06:32;98548.25;;;3.18;100.00
16777;BME280;8505;49.456;8.164;2024-03-02T06:09:00;98556.09;;;3.18;100.00
16777;BME280;8505;49.456;8.164;2024-03-02T06:11:29;98553.88;;;3.06;100.00
16777;BME280;8505;49.456;8.164;2024-03-02T06:13:56;98553.72;;;3.07;100.00
16777;BME280;8505;49.456;8.164;2024-03-02T06:16:24;98551.69;;;3.19;100.00
16777;BME280;8505;49.456;8.164;2024-03-02T06:18:52;98544.38;;;3.31;100.00
16777;BME280;8505;49.456;8.164;2024-03-02T06:21:22;98538.38;;;3.38;100.00
16777;BME280;8505;49.456;8.164;2024-03-02T06:23:49;98546.31;;;3.29;100.00
16777;BME280;8505;49.456;8.164;2024-03-02T06:26:17;98559.72;;;3.25;100.00
16777;BME280;8505;49.456;8.164;2024-03-02T06:28:48;98565.25;;;3.22;100.00
16777;BME280;8505;49.456;8.164;2024-03-02T06:31:16;98564.22;;;3.15;100.00
16777;BME280;8505;49.456;8.164;2024-03-02T06:33:43;98564.44;;;3.22;100.00
16777;BME280;8505;49.456;8.164;2024-03-02T06:36:11;98575.63;;;3.32;100.00
16777;BME280;8505;49.456;8.164;2024-03-02T06:38:40;98569.59;;;3.40;100.00
16777;BME280;8505;49.456;8.164;2024-03-02T06:41:09;98573.56;;;3.44;100.00
16777;BME280;8505;49.456;8.164;2024-03-02T06:43:37;98571.47;;;3.47;100.00
16777;BME280;8505;49.456;8.164;2024-03-02T06:46:05;98574.59;;;3.51;100.00
16777;BME280;8505;49.456;8.164;2024-03-02T06:48:36;98570.22;;;3.59;100.00
16777;BME280;8505;49.456;8.164;2024-03-02T06:51:04;98567.44;;;3.61;100.00
16777;BME280;8505;49.456;8.164;2024-03-02T06:53:31;98561.44;;;3.69;100.00
16777;BME280;8505;49.456;8.164;2024-03-02T06:56:01;98559.66;;;3.77;100.00
16777;BME280;8505;49.456;8.164;2024-03-02T06:58:29;98567.75;;;3.92;100.00
16777;BME280;8505;49.456;8.164;2024-03-02T07:00:57;98565.97;;;4.00;100.00
16777;BME280;8505;49.456;8.164;2024-03-02T07:03:27;98567.16;;;4.06;100.00
16777;BME280;8505;49.456;8.164;2024-03-02T07:05:55;98576.50;;;4.17;100.00
16777;BME280;8505;49.456;8.164;2024-03-02T07:08:23;98577.03;;;4.28;100.00
16777;BME280;8505;49.456;8.164;2024-03-02T07:10:51;98582.22;;;4.20;100.00
16777;BME280;8505;49.456;8.164;2024-03-02T07:13:20;98581.25;;;4.21;100.00
16777;BME280;8505;49.456;8.164;2024-03-02T07:15:47;98579.66;;;4.36;100.00
16777;BME280;8505;49.456;8.164;2024-03-02T07:18:42;98593.13;;;4.50;100.00
16777;BME280;8505;49.456;8.164;2024-03-02T07:21:17;98588.25;;;4.63;100.00
16777;BME280;8505;49.456;8.164;2024-03-02T07:23:45;98590.22;;;4.69;100.00
16777;BME280;8505;49.456;8.164;2024-03-02T07:26:13;98590.34;;;4.75;100.00
16777;BME280;8505;49.456;8.164;2024-03-02T07:28:46;98591.69;;;4.96;100.00
16777;BME280;8505;49.456;8.164;2024-03-02T07:31:15;98604.94;;;4.94;100.00
16777;BME280;8505;49.456;8.164;2024-03-02T07:33:44;98608.56;;;5.09;100.00
16777;BME280;8505;49.456;8.164;2024-03-02T07:36:12;98605.78;;;5.19;100.00
16777;BME280;8505;49.456;8.164;2024-03-02T07:38:40;98602.47;;;5.33;100.00
16777;BME280;8505;49.456;8.164;2024-03-02T07:41:08;98607.25;;;5.13;100.00
16777;BME280;8505;49.456;8.164;2024-03-02T07:43:37;98610.88;;;5.28;100.00
16777;BME280;8505;49.456;8.164;2024-03-02T07:46:07;98603.16;;;5.27;100.00
16777;BME280;8505;49.456;8.164;2024-03-02T07:48:35;98607.53;;;5.59;100.00
16777;BME280;8505;49.456;8.164;2024-03-02T07:51:03;98613.59;;;5.59;100.00
16777;BME280;8505;49.456;8.164;2024-03-02T07:53:31;98608.34;;;5.51;100.00
16777;BME280;8505;49.456;8.164;2024-03-02T07:55:59;98614.13;;;5.55;100.00
16777;BME280;8505;49.456;8.164;2024-03-02T07:58:29;98617.22;;;5.50;100.00
16777;BME280;8505;49.456;8.164;2024-03-02T08:00:58;98612.41;;;5.78;100.00
16777;BME280;8505;49.456;8.164;2024-03-02T08:03:29;98608.56;;;6.05;100.00
16777;BME280;8505;49.456;8.164;2024-03-02T08:05:58;98613.47;;;6.16;99.36
16777;BME280;8505;49.456;8.164;2024-03-02T08:08:27;98612.63;;;6.16;100.00
16777;BME280;8505;49.456;8.164;2024-03-02T08:10:54;98612.50;;;6.09;100.00
16777;BME280;8505;49.456;8.164;2024-03-02T08:13:24;98608.84;;;6.49;100.00
16777;BME280;8505;49.456;8.164;2024-03-02T08:15:52;98609.75;;;6.33;100.00
16777;BME280;8505;49.456;8.164;2024-03-02T08:18:20;98610.81;;;6.78;99.48
16777;BME280;8505;49.456;8.164;2024-03-02T08:20:50;98617.00;;;7.08;98.17
16777;BME280;8505;49.456;8.164;2024-03-02T08:23:17;98613.00;;;7.12;97.34
16777;BME280;8505;49.456;8.164;2024-03-02T08:25:45;98607.31;;;7.23;96.45
16777;BME280;8505;49.456;8.164;2024-03-02T08:28:13;98614.00;;;7.48;95.09
16777;BME280;8505;49.456;8.164;2024-03-02T08:30:41;98603.28;;;8.08;94.29
16777;BME280;8505;49.456;8.164;2024-03-02T08:33:09;98607.25;;;9.06;89.74
16777;BME280;8505;49.456;8.164;2024-03-02T08:35:36;98601.59;;;9.37;85.25
16777;BME280;8505;49.456;8.164;2024-03-02T08:38:05;98600.75;;;9.29;84.50
16777;BME280;8505;49.456;8.164;2024-03-02T08:40:33;98611.19;;;8.95;85.71
16777;BME280;8505;49.456;8.164;2024-03-02T08:43:01;98603.53;;;9.00;86.02
16777;BME280;8505;49.456;8.164;2024-03-02T08:45:29;98606.41;;;8.84;86.75
16777;BME280;8505;49.456;8.164;2024-03-02T08:47:57;98604.97;;;9.03;84.82
16777;BME280;8505;49.456;8.164;2024-03-02T08:50:25;98606.38;;;9.26;84.70
16777;BME280;8505;49.456;8.164;2024-03-02T08:52:53;98605.31;;;9.21;83.19
16777;BME280;8505;49.456;8.164;2024-03-02T08:55:22;98611.00;;;9.18;82.83
16777;BME280;8505;49.456;8.164;2024-03-02T08:57:50;98603.38;;;9.08;83.66
16777;BME280;8505;49.456;8.164;2024-03-02T09:00:18;98605.41;;;9.06;82.68
16777;BME280;8505;49.456;8.164;2024-03-02T09:02:46;98597.97;;;9.38;82.47
16777;BME280;8505;49.456;8.164;2024-03-02T09:05:14;98606.69;;;9.38;82.09
16777;BME280;8505;49.456;8.164;2024-03-02T09:07:42;98599.25;;;9.48;81.38
16777;BME280;8505;49.456;8.164;2024-03-02T09:10:10;98593.25;;;9.61;80.12
16777;BME280;8505;49.456;8.164;2024-03-02T09:12:39;98592.34;;;10.16;78.63
16777;BME280;8505;49.456;8.164;2024-03-02T09:15:07;98590.47;;;10.58;75.30
16777;BME280;8505;49.456;8.164;2024-03-02T09:17:35;98588.56;;;10.38;76.51
16777;BME280;8505;49.456;8.164;2024-03-02T09:20:04;98587.09;;;10.23;76.76
16777;BME280;8505;49.456;8.164;2024-03-02T09:22:32;98594.16;;;10.70;75.74
16777;BME280;8505;49.456;8.164;2024-03-02T09:24:59;98596.22;;;10.87;75.12
16777;BME280;8505;49.456;8.164;2024-03-02T09:27:27;98599.66;;;10.75;75.27
16777;BME280;8505;49.456;8.164;2024-03-02T09:29:56;98592.13;;;10.65;75.38
16777;BME280;8505;49.456;8.164;2024-03-02T09:32:24;98595.03;;;10.97;74.35
16777;BME280;8505;49.456;8.164;2024-03-02T09:34:51;98587.69;;;11.58;72.23
16777;BME280;8505;49.456;8.164;2024-03-02T09:37:20;98588.72;;;11.44;71.04
16777;BME280;8505;49.456;8.164;2024-03-02T09:39:47;98582.63;;;12.34;68.78
16777;BME280;8505;49.456;8.164;2024-03-02T09:42:15;98570.75;;;12.74;66.65
16777;BME280;8505;49.456;8.164;2024-03-02T09:44:43;98581.16;;;12.38;66.00
16777;BME280;8505;49.456;8.164;2024-03-02T09:47:13;98580.03;;;13.21;63.15
16777;BME280;8505;49.456;8.164;2024-03-02T09:49:40;98577.84;;;13.18;64.45
16777;BME280;8505;49.456;8.164;2024-03-02T09:52:08;98580.94;;;12.46;65.98
16777;BME280;8505;49.456;8.164;2024-03-02T09:54:36;98580.09;;;11.94;68.85
16777;BME280;8505;49.456;8.164;2024-03-02T09:57:04;98589.72;;;11.43;70.79
16777;BME280;8505;49.456;8.164;2024-03-02T09:59:32;98588.53;;;11.39;71.22
16777;BME280;8505;49.456;8.164;2024-03-02T10:02:01;98586.50;;;11.21;71.03
16777;BME280;8505;49.456;8.164;2024-03-02T10:04:30;98584.47;;;11.16;71.83
16777;BME280;8505;49.456;8.164;2024-03-02T10:07:12;98587.50;;;11.00;71.94
16777;BME280;8505;49.456;8.164;2024-03-02T10:09:41;98584.44;;;10.90;71.53
16777;BME280;8505;49.456;8.164;2024-03-02T10:12:10;98577.06;;;10.72;72.52
16777;BME280;8505;49.456;8.164;2024-03-02T10:14:39;98584.41;;;10.77;73.39
16777;BME280;8505;49.456;8.164;2024-03-02T10:17:08;98583.19;;;10.79;72.46
16777;BME280;8505;49.456;8.164;2024-03-02T10:19:39;98579.31;;;10.75;72.61
16777;BME280;8505;49.456;8.164;2024-03-02T10:22:08;98576.25;;;10.65;73.14
16777;BME280;8505;49.456;8.164;2024-03-02T10:24:37;98577.06;;;10.66;73.50
16777;BME280;8505;49.456;8.164;2024-03-02T10:27:09;98580.34;;;10.87;73.13
16777;BME280;8505;49.456;8.164;2024-03-02T10:29:38;98573.25;;;11.14;71.57
16777;BME280;8505;49.456;8.164;2024-03-02T10:32:10;98568.13;;;10.93;71.17
16777;BME280;8505;49.456;8.164;2024-03-02T10:34:41;98571.78;;;10.99;71.87
16777;BME280;8505;49.456;8.164;2024-03-02T10:37:10;98581.19;;;11.08;71.40
16777;BME280;8505;49.456;8.164;2024-03-02T10:39:39;98573.44;;;11.19;69.57
16777;BME280;8505;49.456;8.164;2024-03-02T10:42:08;98565.47;;;11.46;70.01
16777;BME280;8505;49.456;8.164;2024-03-02T10:44:36;98567.50;;;11.63;69.57
16777;BME280;8505;49.456;8.164;2024-03-02T10:47:05;98559.75;;;11.55;70.37
16777;BME280;8505;49.456;8.164;2024-03-02T10:49:33;98557.72;;;11.77;69.61
16777;BME280;8505;49.456;8.164;2024-03-02T10:52:02;98551.78;;;11.68;69.45
16777;BME280;8505;49.456;8.164;2024-03-02T10:54:30;98546.19;;;12.09;68.07
16777;BME280;8505;49.456;8.164;2024-03-02T10:57:04;98543.31;;;12.04;68.03
16777;BME280;8505;49.456;8.164;2024-03-02T10:59:37;98545.25;;;12.67;64.24
16777;BME280;8505;49.456;8.164;2024-03-02T11:02:06;98534.84;;;13.21;63.17
16777;BME280;8505;49.456;8.164;2024-03-02T11:04:35;98533.78;;;13.29;61.64
16777;BME280;8505;49.456;8.164;2024-03-02T11:07:10;98531.03;;;13.97;59.88
16777;BME280;8505;49.456;8.164;2024-03-02T11:09:41;98529.69;;;14.06;57.21
16777;BME280;8505;49.456;8.164;2024-03-02T11:12:12;98529.44;;;14.26;56.31
16777;BME280;8505;49.456;8.164;2024-03-02T11:14:41;98521.25;;;14.09;55.10
16777;BME280;8505;49.456;8.164;2024-03-02T11:17:11;98521.53;;;14.37;55.96
16777;BME280;8505;49.456;8.164;2024-03-02T11:19:43;98518.00;;;14.55;52.48
16777;BME280;8505;49.456;8.164;2024-03-02T11:22:13;98513.72;;;15.77;50.52
16777;BME280;8505;49.456;8.164;2024-03-02T11:24:48;98516.28;;;16.80;48.86
16777;BME280;8505;49.456;8.164;2024-03-02T11:28:01;98498.06;;;16.77;49.30
16777;BME280;8505;49.456;8.164;2024-03-02T11:30:49;98505.50;;;16.47;50.08
16777;BME280;8505;49.456;8.164;2024-03-02T11:33:24;98502.63;;;16.08;51.39
16777;BME280;8505;49.456;8.164;2024-03-02T11:35:55;98503.13;;;16.79;51.02
16777;BME280;8505;49.456;8.164;2024-03-02T11:38:27;98500.41;;;16.90;50.63
16777;BME280;8505;49.456;8.164;2024-03-02T11:40:55;98502.34;;;16.22;50.81
16777;BME280;8505;49.456;8.164;2024-03-02T11:43:25;98501.00;;;16.07;52.24
16777;BME280;8505;49.456;8.164;2024-03-02T11:45:57;98490.91;;;15.58;53.71
16777;BME280;8505;49.456;8.164;2024-03-02T11:48:26;98499.00;;;14.93;54.16
16777;BME280;8505;49.456;8.164;2024-03-02T11:50:57;98494.91;;;14.79;55.57
16777;BME280;8505;49.456;8.164;2024-03-02T11:53:27;98493.25;;;14.66;55.74
16777;BME280;8505;49.456;8.164;2024-03-02T11:55:59;98486.81;;;15.09;55.00
16777;BME280;8505;49.456;8.164;2024-03-02T11:58:28;98479.84;;;15.08;54.79
16777;BME280;8505;49.456;8.164;2024-03-02T12:00:56;98480.78;;;14.18;56.57
16777;BME280;8505;49.456;8.164;2024-03-02T12:03:25;98474.44;;;14.49;56.24
16777;BME280;8505;49.456;8.164;2024-03-02T12:05:54;98474.81;;;14.65;55.88
16777;BME280;8505;49.456;8.164;2024-03-02T12:08:22;98473.59;;;14.90;55.44
16777;BME280;8505;49.456;8.164;2024-03-02T12:10:58;98465.19;;;14.34;55.04
16777;BME280;8505;49.456;8.164;2024-03-02T12:13:27;98472.06;;;14.83;54.75
16777;BME280;8505;49.456;8.164;2024-03-02T12:15:55;98459.78;;;15.52;52.84
16777;BME280;8505;49.456;8.164;2024-03-02T12:18:23;98464.44;;;15.45;52.78
16777;BME280;8505;49.456;8.164;2024-03-02T12:20:52;98459.00;;;15.16;52.94
16777;BME280;8505;49.456;8.164;2024-03-02T12:23:24;98454.09;;;15.25;52.51
16777;BME280;8505;49.456;8.164;2024-03-02T12:25:53;98449.06;;;15.75;52.09
16777;BME280;8505;49.456;8.164;2024-03-02T12:28:22;98460.81;;;14.69;53.14
16777;BME280;8505;49.456;8.164;2024-03-02T12:30:49;98455.97;;;15.01;52.93
16777;BME280;8505;49.456;8.164;2024-03-02T12:33:18;98454.78;;;14.02;55.05
16777;BME280;8505;49.456;8.164;2024-03-02T12:35:49;98449.91;;;14.59;54.09
16777;BME280;8505;49.456;8.164;2024-03-02T12:38:17;98439.13;;;15.99;51.27
16777;BME280;8505;49.456;8.164;2024-03-02T12:40:44;98427.28;;;16.51;47.31
16777;BME280;8505;49.456;8.164;2024-03-02T12:43:12;98428.19;;;17.07;45.54
16777;BME280;8505;49.456;8.164;2024-03-02T12:45:41;98427.97;;;16.75;46.50
16777;BME280;8505;49.456;8.164;2024-03-02T12:48:09;98418.06;;;17.09;45.30
16777;BME280;8505;49.456;8.164;2024-03-02T12:50:37;98416.78;;;17.55;44.63
16777;BME280;8505;49.456;8.164;2024-03-02T12:53:04;98421.34;;;17.33;44.86
16777;BME280;8505;49.456;8.164;2024-03-02T12:55:32;98415.81;;;18.32;42.60
16777;BME280;8505;49.456;8.164;2024-03-02T12:58:00;98407.66;;;19.17;41.70
16777;BME280;8505;49.456;8.164;2024-03-02T13:00:29;98404.78;;;19.34;41.53
16777;BME280;8505;49.456;8.164;2024-03-02T13:03:03;98408.75;;;18.84;41.75
16777;BME280;8505;49.456;8.164;2024-03-02T13:05:30;98403.16;;;16.96;45.92
16777;BME280;8505;49.456;8.164;2024-03-02T13:07:59;98400.34;;;17.63;45.67
16777;BME280;8505;49.456;8.164;2024-03-02T13:10:27;98398.69;;;18.65;44.12
16777;BME280;8505;49.456;8.164;2024-03-02T13:12:55;98398.81;;;18.80;42.52
16777;BME280;8505;49.456;8.164;2024-03-02T13:15:25;98393.06;;;18.66;42.16
16777;BME280;8505;49.456;8.164;2024-03-02T13:17:53;98390.03;;;18.26;43.04
16777;BME280;8505;49.456;8.164;2024-03-02T13:20:22;98386.66;;;18.40;42.97
16777;BME280;8505;49.456;8.164;2024-03-02T13:22:52;98394.78;;;19.19;42.00